Meroney, Arkansas
Current Conditions -  °F | °C
As of 4:53 AM on Wednesday 22 Oct 2014 (Local Time) from KPBF Reporting Station
Clear Clear  
Wind Chill: 52°   Ceiling: Unl
Heat Index: 52°   Visibility: 10mi
Dew Point: 49°   Wind: 3mph
Humidity: 89%   Direction: 340°NNW
Pressure: 30.13"   Gusts: NA
Location:  34.0297°N, 91.5376°W
Report Text: KPBF 220953Z AUTO 34003KT 10SM CLR 11/09 A3013 RMK AO2 SLP202 T01110094
Loading
Personal Weather Stations






























Interactive Weather Map
Tropical Storm Tracking
New forecast layout! Learn more

10-Day Weather Forecast

Advertisements
Track Severe Weather on mobile